Time;durP1;ratioP1;P1;durP2;ratioP2;P2;SDS_P1;SDS_P2;PMS_P1;PMS_P2;Temp;Humidity;BMP_temperature;BMP_pressure;BME280_temperature;BME280_humidity;BME280_pressure;Samples;Min_cycle;Max_cycle;Signal;HPM_P1;HPM_P2
2023/03/18 00:01:17;;;;;;;8.88;4.40;;;;;;;1.85;100.00;95082.50;5015797;28;20049;-74
2023/03/18 00:03:44;;;;;;;11.20;4.47;;;;;;;1.88;100.00;95082.06;5007386;28;20092;-74
2023/03/18 00:06:15;;;;;;;9.82;4.20;;;;;;;1.84;100.00;95073.13;5008281;28;20608;-74
2023/03/18 00:08:42;;;;;;;8.77;4.38;;;;;;;1.80;100.00;95090.16;5011117;28;20044;-74
2023/03/18 00:11:10;;;;;;;8.27;4.50;;;;;;;1.79;100.00;95083.38;5015650;28;20042;-74
2023/03/18 00:13:36;;;;;;;9.00;4.63;;;;;;;1.80;100.00;95090.16;5003434;28;20034;-74
2023/03/18 00:16:04;;;;;;;7.45;4.82;;;;;;;1.80;100.00;95090.16;5015499;28;20060;-74
2023/03/18 00:18:30;;;;;;;7.43;4.28;;;;;;;1.76;100.00;95089.03;5018168;28;20068;-74
2023/03/18 00:20:57;;;;;;;8.32;4.68;;;;;;;1.68;100.00;95086.75;5023898;28;20605;-74
2023/03/18 00:23:25;;;;;;;7.55;4.40;;;;;;;1.65;100.00;95082.00;5007694;28;20057;-74
2023/03/18 00:25:52;;;;;;;8.93;4.50;;;;;;;1.66;100.00;95096.56;5013172;28;20049;-74
2023/03/18 00:28:18;;;;;;;8.05;4.15;;;;;;;1.63;100.00;95097.00;5016145;28;20862;-74
2023/03/18 00:30:45;;;;;;;8.98;4.38;;;;;;;1.69;100.00;95098.72;5025974;28;20053;-74
2023/03/18 00:33:11;;;;;;;8.30;4.15;;;;;;;1.66;100.00;95104.34;5012758;28;20045;-74
2023/03/18 00:35:38;;;;;;;11.80;4.50;;;;;;;1.63;100.00;95109.97;5018606;28;20159;-74
2023/03/18 00:38:06;;;;;;;11.38;4.35;;;;;;;1.63;100.00;95109.97;5010553;28;20112;-74
2023/03/18 00:43:17;;;;;;;7.47;4.68;;;;;;;1.53;100.00;95106.09;5006541;28;20038;-74
2023/03/18 00:45:43;;;;;;;9.25;5.20;;;;;;;1.51;100.00;95102.97;5014128;28;20042;-74
2023/03/18 00:48:10;;;;;;;8.88;4.55;;;;;;;1.49;100.00;95110.16;5011606;28;20042;-74
2023/03/18 00:50:36;;;;;;;8.73;4.97;;;;;;;1.43;100.00;95115.47;5023075;28;20037;-74
2023/03/18 00:53:02;;;;;;;8.82;4.45;;;;;;;1.49;100.00;95110.16;5018404;28;20045;-74
2023/03/18 00:55:28;;;;;;;9.40;4.25;;;;;;;1.47;100.00;95111.41;5017987;28;20048;-75
2023/03/18 00:57:53;;;;;;;9.88;4.47;;;;;;;1.43;100.00;95113.66;5018707;28;20473;-74
2023/03/18 01:00:20;;;;;;;12.55;4.95;;;;;;;1.36;100.00;95121.50;5011635;28;20046;-75
2023/03/18 01:02:48;;;;;;;9.20;4.57;;;;;;;1.34;100.00;95114.97;5018946;28;20356;-74
2023/03/18 01:05:15;;;;;;;9.40;4.50;;;;;;;1.34;100.00;95117.56;5017040;28;20045;-74
2023/03/18 01:07:42;;;;;;;8.27;4.55;;;;;;;1.37;100.00;95111.94;5017549;28;20034;-74
2023/03/18 01:10:09;;;;;;;9.30;4.32;;;;;;;1.35;100.00;95119.13;5013924;28;20406;-74
2023/03/18 01:12:35;;;;;;;8.73;4.40;;;;;;;1.31;100.00;95120.63;5004631;28;20049;-74
2023/03/18 01:15:02;;;;;;;9.15;4.43;;;;;;;1.25;100.00;95118.88;5005568;28;20037;-74
2023/03/18 01:17:27;;;;;;;12.57;4.80;;;;;;;1.27;100.00;95106.50;5013071;28;20042;-74
2023/03/18 01:19:54;;;;;;;8.65;4.70;;;;;;;1.27;100.00;95109.09;5012502;28;20780;-74
2023/03/18 01:22:19;;;;;;;9.98;4.80;;;;;;;1.30;100.00;95113.84;5012156;28;20390;-75
2023/03/18 01:24:46;;;;;;;10.40;4.90;;;;;;;1.27;100.00;95112.47;5017256;28;20101;-74
2023/03/18 01:27:11;;;;;;;9.07;4.70;;;;;;;1.31;100.00;95118.03;5017921;28;20042;-74
2023/03/18 01:29:37;;;;;;;11.82;4.70;;;;;;;1.32;100.00;95110.03;5016233;28;20076;-74
2023/03/18 01:32:03;;;;;;;9.93;4.50;;;;;;;1.27;100.00;95106.50;5003641;28;20049;-74
2023/03/18 01:34:29;;;;;;;12.98;5.15;;;;;;;1.33;100.00;95105.63;5010097;28;20049;-74
2023/03/18 01:36:56;;;;;;;11.73;4.68;;;;;;;1.29;100.00;95115.63;5016962;28;20052;-74
2023/03/18 01:39:22;;;;;;;8.70;4.70;;;;;;;1.32;100.00;95109.22;4998838;28;20054;-74
2023/03/18 01:41:49;;;;;;;9.23;4.50;;;;;;;1.33;100.00;95110.81;5019393;28;20054;-74
2023/03/18 01:44:19;;;;;;;12.45;5.05;;;;;;;1.38;100.00;95113.53;5005144;28;20042;-74
2023/03/18 01:46:49;;;;;;;10.60;4.93;;;;;;;1.32;100.00;95115.19;5008205;28;20421;-74
2023/03/18 01:49:19;;;;;;;9.23;4.45;;;;;;;1.33;100.00;95105.63;5015053;28;20406;-74
2023/03/18 01:52:14;;;;;;;8.48;4.25;;;;;;;1.36;100.00;95115.53;5007436;28;20042;-74
2023/03/18 01:54:44;;;;;;;13.88;4.63;;;;;;;1.39;100.00;95120.28;5022131;28;20076;-74
2023/03/18 01:57:11;;;;;;;8.45;4.20;;;;;;;1.37;100.00;95122.31;5011148;28;20038;-74
2023/03/18 01:59:40;;;;;;;9.65;4.55;;;;;;;1.38;100.00;95126.50;4996937;28;20038;-75
2023/03/18 02:02:12;;;;;;;10.77;5.30;;;;;;;1.46;100.00;95125.38;4997627;28;20092;-74
2023/03/18 02:04:44;;;;;;;13.63;4.65;;;;;;;1.43;100.00;95121.41;4999300;28;20120;-74
2023/03/18 02:07:15;;;;;;;11.15;4.82;;;;;;;1.49;100.00;95127.53;5022468;28;20497;-74
2023/03/18 02:09:40;;;;;;;10.63;4.88;;;;;;;1.51;100.00;95113.34;5015644;28;20635;-74
2023/03/18 02:12:08;;;;;;;12.00;4.07;;;;;;;1.54;100.00;95123.25;5009662;28;20045;-74
2023/03/18 02:14:33;;;;;;;8.88;4.00;;;;;;;1.50;100.00;95122.13;5021360;28;20053;-73
2023/03/18 02:17:09;;;;;;;8.85;4.60;;;;;;;1.60;100.00;95126.00;5004537;28;20042;-73
2023/03/18 02:19:53;;;;;;;11.18;3.90;;;;;;;1.63;100.00;95125.53;5019940;28;20041;-73
2023/03/18 02:22:56;;;;;;;8.45;4.55;;;;;;;1.70;100.00;95131.44;5015212;28;20046;-74
2023/03/18 02:25:49;;;;;;;7.35;4.13;;;;;;;1.64;100.00;95127.09;5001504;28;20125;-73
2023/03/18 02:28:22;;;;;;;7.32;4.07;;;;;;;1.67;100.00;95131.88;5014845;28;20041;-74
2023/03/18 02:30:51;;;;;;;8.55;4.55;;;;;;;1.66;100.00;95130.28;5006970;28;20038;-74
2023/03/18 02:33:20;;;;;;;12.57;4.75;;;;;;;1.67;100.00;95124.88;5017570;28;20044;-74
2023/03/18 02:35:49;;;;;;;11.05;4.40;;;;;;;1.78;100.00;95125.13;5018604;28;20065;-74
2023/03/18 02:38:15;;;;;;;9.48;4.75;;;;;;;1.83;100.00;95135.63;5010632;28;20064;-73
2023/03/18 02:40:41;;;;;;;8.55;4.18;;;;;;;1.81;100.00;95133.25;5021380;28;20041;-74
2023/03/18 02:43:30;;;;;;;9.88;4.65;;;;;;;1.84;100.00;95138.00;5004844;28;20042;-73
2023/03/18 02:45:56;;;;;;;10.95;4.68;;;;;;;1.88;100.00;95139.13;5023895;28;20518;-73
2023/03/18 02:48:27;;;;;;;8.80;4.85;;;;;;;2.04;100.00;95142.06;5014266;28;20038;-73
2023/03/18 02:50:55;;;;;;;8.48;4.72;;;;;;;2.12;100.00;95139.16;5018049;28;20116;-74
2023/03/18 02:53:20;;;;;;;9.40;4.68;;;;;;;2.07;100.00;95142.44;5013040;28;20099;-74
2023/03/18 02:55:46;;;;;;;11.35;4.93;;;;;;;2.10;100.00;95151.56;5028393;28;20041;-74
2023/03/18 02:58:12;;;;;;;11.48;4.55;;;;;;;2.08;100.00;95148.41;5008382;28;20045;-74
2023/03/18 03:00:37;;;;;;;11.18;4.95;;;;;;;2.11;100.00;95153.13;5013160;28;20497;-73
2023/03/18 03:03:04;;;;;;;10.63;4.60;;;;;;;2.14;100.00;95152.72;5008888;28;20498;-74
2023/03/18 03:05:30;;;;;;;10.43;4.90;;;;;;;2.21;100.00;95153.41;5004033;28;20121;-74
2023/03/18 03:07:55;;;;;;;8.07;4.38;;;;;;;2.27;100.00;95166.47;5019130;28;20100;-74
2023/03/18 03:10:21;;;;;;;10.15;4.35;;;;;;;2.22;100.00;95170.53;5010677;28;20497;-73
2023/03/18 03:12:47;;;;;;;8.07;4.32;;;;;;;2.25;100.00;95170.09;5013382;28;20054;-74
2023/03/18 03:15:13;;;;;;;11.00;4.90;;;;;;;2.28;100.00;95175.84;5006331;28;20133;-73
2023/03/18 03:17:40;;;;;;;7.90;4.32;;;;;;;2.41;100.00;95173.84;5014416;28;21042;-73
2023/03/18 03:20:07;;;;;;;8.65;4.57;;;;;;;2.40;100.00;95171.47;5015189;28;20049;-73
2023/03/18 03:22:33;;;;;;;9.40;4.95;;;;;;;2.33;100.00;95173.34;5005512;28;20096;-75
2023/03/18 03:25:00;;;;;;;8.30;4.40;;;;;;;2.30;100.00;95181.59;5019875;28;20673;-75
2023/03/18 03:27:26;;;;;;;8.38;4.40;;;;;;;2.32;100.00;95179.59;5012913;28;20049;-74
2023/03/18 03:29:52;;;;;;;8.23;4.38;;;;;;;2.41;100.00;95184.22;5020249;28;20038;-74
2023/03/18 03:32:18;;;;;;;8.07;4.32;;;;;;;2.36;100.00;95191.13;5015511;28;20077;-74
2023/03/18 03:34:44;;;;;;;8.10;4.28;;;;;;;2.35;100.00;95189.53;5010826;28;20449;-74
2023/03/18 03:37:10;;;;;;;7.10;3.97;;;;;;;2.33;100.00;95191.53;5021025;28;20048;-74
2023/03/18 03:39:35;;;;;;;7.13;3.92;;;;;;;2.29;100.00;95187.84;5015047;28;20493;-74
2023/03/18 03:42:01;;;;;;;9.00;4.07;;;;;;;2.31;100.00;95188.38;5006472;28;20125;-74
2023/03/18 03:44:26;;;;;;;10.52;4.85;;;;;;;2.33;100.00;95186.34;5005436;28;20042;-74
2023/03/18 03:46:52;;;;;;;9.75;4.35;;;;;;;2.40;100.00;95187.06;5003707;28;20611;-74
2023/03/18 03:49:17;;;;;;;10.68;3.65;;;;;;;2.43;100.00;95192.56;5025200;28;20738;-74
2023/03/18 03:51:43;;;;;;;7.30;3.85;;;;;;;2.32;100.00;95184.78;5005723;28;20120;-74
2023/03/18 03:54:12;;;;;;;8.88;4.00;;;;;;;2.33;100.00;95189.75;5014897;28;20505;-74
2023/03/18 03:56:38;;;;;;;8.65;4.00;;;;;;;2.29;100.00;95185.25;5016466;28;20049;-74
2023/03/18 03:59:04;;;;;;;6.80;3.95;;;;;;;2.31;100.00;95196.19;5014791;28;20045;-75
2023/03/18 04:01:30;;;;;;;8.63;4.00;;;;;;;2.36;100.00;95196.31;5003916;28;20066;-75
2023/03/18 04:03:56;;;;;;;11.30;4.40;;;;;;;2.35;100.00;95194.72;5017152;28;20057;-74
2023/03/18 04:06:22;;;;;;;7.50;3.85;;;;;;;2.32;100.00;95200.38;5025395;28;20508;-74
2023/03/18 04:08:48;;;;;;;8.75;4.15;;;;;;;2.31;100.00;95203.97;5012727;28;20040;-74
2023/03/18 04:11:14;;;;;;;9.30;4.10;;;;;;;2.23;100.00;95192.91;5015860;28;20128;-74
2023/03/18 04:13:39;;;;;;;9.00;4.07;;;;;;;2.32;100.00;95202.97;5028224;28;20067;-74
2023/03/18 04:16:06;;;;;;;6.93;3.92;;;;;;;2.32;100.00;95205.56;5012725;28;20390;-74
2023/03/18 04:18:32;;;;;;;12.23;4.22;;;;;;;2.36;100.00;95201.50;5022986;28;20103;-74
2023/03/18 04:20:58;;;;;;;8.60;4.03;;;;;;;2.35;100.00;95207.69;5017519;28;20049;-75
2023/03/18 04:23:23;;;;;;;7.15;3.67;;;;;;;2.47;100.00;95198.13;5002041;28;20046;-74
2023/03/18 04:25:49;;;;;;;7.22;3.83;;;;;;;2.44;100.00;95208.94;5006499;28;20037;-74
2023/03/18 04:28:15;;;;;;;7.55;3.90;;;;;;;2.39;100.00;95206.25;5030038;28;20067;-74
2023/03/18 04:30:40;;;;;;;9.57;4.07;;;;;;;2.37;100.00;95203.06;5011683;28;20037;-74
2023/03/18 04:33:06;;;;;;;8.40;3.90;;;;;;;2.39;100.00;95211.44;5017247;28;20608;-74
2023/03/18 04:35:32;;;;;;;8.77;3.70;;;;;;;2.35;100.00;95205.88;5004889;28;20053;-75
2023/03/18 04:37:58;;;;;;;8.90;3.90;;;;;;;2.36;100.00;95217.88;5016469;28;20147;-74
2023/03/18 04:40:24;;;;;;;13.48;4.13;;;;;;;2.32;100.00;95206.34;5022977;28;20038;-74
2023/03/18 04:42:49;;;;;;;8.02;3.75;;;;;;;2.37;100.00;95208.25;5014280;28;20045;-74
2023/03/18 04:45:15;;;;;;;8.88;4.35;;;;;;;2.39;100.00;95216.63;5013205;28;20061;-74
2023/03/18 04:47:42;;;;;;;9.68;3.60;;;;;;;2.40;100.00;95215.63;5015214;28;20048;-74
2023/03/18 04:50:11;;;;;;;10.60;3.90;;;;;;;2.33;100.00;95217.50;5011606;28;20038;-74
2023/03/18 04:52:38;;;;;;;8.48;3.50;;;;;;;2.33;100.00;95222.69;5003934;28;20042;-75
2023/03/18 04:55:04;;;;;;;10.13;3.97;;;;;;;2.81;100.00;95213.13;5020241;28;20045;-75
2023/03/18 04:57:30;;;;;;;11.60;4.07;;;;;;;2.63;100.00;95216.63;5007901;28;20053;-74
2023/03/18 04:59:57;;;;;;;8.43;3.92;;;;;;;2.50;100.00;95205.47;5012600;28;21287;-74
2023/03/18 05:02:22;;;;;;;7.03;3.90;;;;;;;2.44;100.00;95203.75;5013509;28;20424;-74
2023/03/18 05:04:48;;;;;;;6.57;3.50;;;;;;;2.50;100.00;95208.06;5008836;28;20053;-74
2023/03/18 05:07:15;;;;;;;10.02;4.45;;;;;;;2.46;100.00;95201.72;5014484;28;20041;-75
2023/03/18 05:09:42;;;;;;;11.38;3.70;;;;;;;2.46;100.00;95201.72;5014510;28;20038;-74
2023/03/18 05:12:14;;;;;;;9.13;3.60;;;;;;;2.39;100.00;95206.25;5010572;28;20124;-75
2023/03/18 05:14:42;;;;;;;7.20;3.80;;;;;;;2.35;100.00;95203.28;5018604;28;20034;-74
2023/03/18 05:17:14;;;;;;;7.78;3.40;;;;;;;2.35;100.00;95205.09;5008972;28;20113;-74
2023/03/18 05:19:45;;;;;;;7.05;3.60;;;;;;;2.34;100.00;95203.50;5007268;28;20042;-74
2023/03/18 05:22:12;;;;;;;8.18;3.72;;;;;;;2.32;100.00;95205.56;5012627;28;20489;-74
2023/03/18 05:24:39;;;;;;;8.63;3.78;;;;;;;2.33;100.00;95207.94;5020951;28;20516;-74
2023/03/18 05:27:04;;;;;;;7.30;3.78;;;;;;;2.32;100.00;95210.75;5016333;28;20517;-74
2023/03/18 05:29:31;;;;;;;11.10;3.65;;;;;;;2.31;100.00;95209.16;5008554;28;20076;-74
2023/03/18 05:31:56;;;;;;;7.50;3.75;;;;;;;2.31;100.00;95211.75;5018896;28;20041;-74
2023/03/18 05:34:22;;;;;;;6.93;3.60;;;;;;;2.27;100.00;95208.84;5011863;28;21940;-74
2023/03/18 05:36:48;;;;;;;8.77;3.70;;;;;;;2.34;100.00;95219.09;5014260;28;20046;-74
2023/03/18 05:39:13;;;;;;;5.97;3.45;;;;;;;2.33;100.00;95218.31;5004535;28;20041;-75
2023/03/18 05:41:39;;;;;;;7.50;3.63;;;;;;;2.31;100.00;95215.13;5002349;28;20041;-74
2023/03/18 05:44:06;;;;;;;7.82;3.70;;;;;;;2.33;100.00;95213.13;4999593;28;20088;-75
2023/03/18 05:46:32;;;;;;;6.10;3.40;;;;;;;2.35;100.00;95215.50;5005853;28;20042;-75
2023/03/18 05:48:57;;;;;;;7.88;3.63;;;;;;;2.33;100.00;95212.31;5015141;28;20044;-74
2023/03/18 05:51:23;;;;;;;7.07;3.30;;;;;;;2.32;100.00;95226.34;5014533;28;20049;-74
2023/03/18 05:53:49;;;;;;;6.60;3.25;;;;;;;2.32;100.00;95228.94;5013211;28;20048;-74
2023/03/18 05:56:15;;;;;;;5.22;2.97;;;;;;;2.35;100.00;95231.84;5026034;28;20042;-74
2023/03/18 05:58:41;;;;;;;9.20;3.78;;;;;;;2.37;100.00;95239.41;4997099;28;20034;-74
2023/03/18 06:01:06;;;;;;;7.00;3.67;;;;;;;2.34;100.00;95235.47;5018675;28;20111;-74
2023/03/18 06:03:33;;;;;;;6.72;3.78;;;;;;;2.46;100.00;95238.09;5010730;28;20114;-76
2023/03/18 06:06:00;;;;;;;8.73;3.40;;;;;;;2.49;100.00;95232.44;5011139;28;20249;-74
2023/03/18 06:08:26;;;;;;;8.23;3.92;;;;;;;2.51;100.00;95229.63;5017074;28;20049;-74
2023/03/18 06:10:53;;;;;;;10.30;3.78;;;;;;;2.54;100.00;95235.16;5008386;28;20042;-75
2023/03/18 06:13:19;;;;;;;5.70;3.10;;;;;;;2.56;100.00;95235.72;5016787;28;20046;-73
2023/03/18 06:15:45;;;;;;;10.35;3.58;;;;;;;2.63;100.00;95237.41;5010685;28;20454;-75
2023/03/18 06:18:12;;;;;;;7.20;3.53;;;;;;;2.64;100.00;95234.59;5018355;28;20490;-74
2023/03/18 06:20:38;;;;;;;6.85;3.42;;;;;;;2.67;100.00;95238.53;5011807;28;20046;-73
2023/03/18 06:23:04;;;;;;;6.95;3.28;;;;;;;2.71;100.00;95234.47;5009455;28;20409;-73
2023/03/18 06:25:30;;;;;;;6.70;3.22;;;;;;;2.75;100.00;95236.41;5007326;28;20127;-73
2023/03/18 06:27:56;;;;;;;8.65;3.10;;;;;;;2.81;100.00;95241.72;5016564;28;20044;-73
2023/03/18 06:30:22;;;;;;;6.57;3.30;;;;;;;2.78;100.00;95235.16;5007951;28;20038;-73
2023/03/18 06:32:47;;;;;;;8.70;3.28;;;;;;;2.84;100.00;95236.84;5012115;28;20045;-72
2023/03/18 06:35:14;;;;;;;7.07;3.70;;;;;;;2.94;100.00;95239.69;5016437;28;20068;-73
2023/03/18 06:37:40;;;;;;;10.68;3.65;;;;;;;3.07;100.00;95237.84;5015349;28;20041;-73
2023/03/18 06:40:07;;;;;;;6.45;3.42;;;;;;;3.16;100.00;95233.91;5003811;28;20049;-72
2023/03/18 06:42:33;;;;;;;9.60;3.15;;;;;;;3.16;100.00;95241.69;5009929;28;20053;-73
2023/03/18 06:44:58;;;;;;;6.57;3.28;;;;;;;3.21;100.00;95239.19;5018671;28;20046;-74
2023/03/18 06:47:25;;;;;;;12.20;4.13;;;;;;;3.31;100.00;95243.03;5013255;28;20041;-74
2023/03/18 06:49:51;;;;;;;16.05;3.60;;;;;;;3.38;100.00;95248.88;5013245;28;20042;-73
2023/03/18 06:52:17;;;;;;;7.25;3.33;;;;;;;3.40;100.00;95236.44;4999413;28;20096;-74
2023/03/18 06:54:43;;;;;;;7.55;3.80;;;;;;;3.51;100.00;95248.63;5010523;28;20046;-74
2023/03/18 06:57:09;;;;;;;7.88;4.07;;;;;;;3.61;100.00;95243.59;5016766;28;20042;-75
2023/03/18 06:59:35;;;;;;;8.40;3.80;;;;;;;3.69;100.00;95239.06;4995405;28;20039;-76
2023/03/18 07:02:01;;;;;;;7.75;3.83;;;;;;;3.79;100.00;95244.44;5016721;28;20041;-75
2023/03/18 07:04:26;;;;;;;7.72;3.58;;;;;;;3.87;100.00;95236.28;4999512;28;20391;-74
2023/03/18 07:06:52;;;;;;;7.78;3.50;;;;;;;4.02;100.00;95247.97;5020243;28;20045;-75
2023/03/18 07:09:18;;;;;;;11.25;4.22;;;;;;;4.16;100.00;95249.25;5016193;28;20509;-75
2023/03/18 07:11:45;;;;;;;6.65;3.47;;;;;;;4.20;100.00;95239.97;5017175;28;20046;-76
2023/03/18 07:14:13;;;;;;;8.65;4.10;;;;;;;4.33;100.00;95244.84;5021902;28;20489;-75
2023/03/18 07:16:40;;;;;;;6.18;3.45;;;;;;;4.46;100.00;95245.59;5019026;28;20126;-75
2023/03/18 07:19:06;;;;;;;9.38;4.05;;;;;;;4.57;100.00;95239.50;4999697;28;20120;-76
2023/03/18 07:21:32;;;;;;;7.93;3.75;;;;;;;4.73;100.00;95247.56;5008751;28;20041;-73
2023/03/18 07:23:57;;;;;;;8.55;3.65;;;;;;;4.96;100.00;95242.16;5016826;28;20046;-74
2023/03/18 07:26:24;;;;;;;7.97;4.15;;;;;;;5.17;100.00;95247.63;5021764;28;20080;-74
2023/03/18 07:28:50;;;;;;;7.82;3.92;;;;;;;5.28;100.00;95244.13;5016084;28;20095;-75
2023/03/18 07:31:16;;;;;;;9.05;4.18;;;;;;;5.44;100.00;95246.94;5009031;28;20045;-73
2023/03/18 07:33:42;;;;;;;9.90;4.13;;;;;;;5.58;100.00;95248.13;5016311;28;20046;-73
2023/03/18 07:36:07;;;;;;;8.73;4.05;;;;;;;5.76;100.00;95248.84;5012316;28;20063;-74
2023/03/18 07:38:33;;;;;;;8.18;3.78;;;;;;;5.95;100.00;95252.72;5010799;28;20042;-73
2023/03/18 07:40:59;;;;;;;8.50;3.58;;;;;;;6.12;100.00;95246.63;5013827;28;20033;-74
2023/03/18 07:43:25;;;;;;;9.68;4.00;;;;;;;6.29;100.00;95242.06;5005298;28;20048;-74
2023/03/18 07:45:51;;;;;;;8.15;3.72;;;;;;;6.47;100.00;95248.00;5004718;28;20038;-74
2023/03/18 07:48:16;;;;;;;10.57;5.43;;;;;;;6.66;100.00;95256.25;5007145;28;20052;-74
2023/03/18 07:50:42;;;;;;;13.48;4.82;;;;;;;6.82;100.00;95238.81;5020628;28;20497;-73
2023/03/18 07:53:08;;;;;;;17.92;4.57;;;;;;;7.02;100.00;95249.41;5003094;28;20115;-73
2023/03/18 07:55:34;;;;;;;12.40;4.15;;;;;;;7.15;100.00;95252.63;5012822;28;20189;-76
2023/03/18 07:57:59;;;;;;;8.43;4.00;;;;;;;7.44;100.00;95256.44;5008851;28;20044;-76
2023/03/18 08:00:25;;;;;;;8.23;3.33;;;;;;;7.70;100.00;95260.97;5014211;28;20034;-74
2023/03/18 08:02:51;;;;;;;10.95;3.50;;;;;;;7.99;100.00;95261.34;5008976;28;20045;-75
2023/03/18 08:05:18;;;;;;;8.48;3.22;;;;;;;8.28;100.00;95255.63;5020721;28;20049;-74
2023/03/18 08:07:44;;;;;;;7.63;3.60;;;;;;;8.42;100.00;95258.50;5007189;28;20046;-75
2023/03/18 08:10:11;;;;;;;10.25;4.10;;;;;;;8.67;100.00;95257.78;5009499;28;20060;-74
2023/03/18 08:12:37;;;;;;;8.88;3.10;;;;;;;8.77;100.00;95264.88;5030073;28;20072;-74
2023/03/18 08:15:03;;;;;;;10.95;4.63;;;;;;;8.83;100.00;95259.34;5000606;28;20037;-74
2023/03/18 08:17:29;;;;;;;8.73;2.88;;;;;;;9.04;100.00;95261.94;5008929;28;20045;-72
2023/03/18 08:19:55;;;;;;;10.95;3.42;;;;;;;9.16;100.00;95261.66;4997794;28;20412;-73
2023/03/18 08:22:22;;;;;;;9.80;3.45;;;;;;;9.22;100.00;95259.81;4995240;28;20040;-73
2023/03/18 08:24:49;;;;;;;7.68;2.80;;;;;;;9.42;100.00;95259.75;4995887;28;20065;-73
2023/03/18 08:27:14;;;;;;;8.13;3.30;;;;;;;9.58;100.00;95264.94;5005667;28;20046;-75
2023/03/18 08:29:40;;;;;;;8.18;3.00;;;;;;;9.82;100.00;95260.63;5005910;28;20038;-75
2023/03/18 08:32:06;;;;;;;5.72;2.97;;;;;;;9.86;100.00;95259.06;5014705;28;20805;-74
2023/03/18 08:34:32;;;;;;;13.25;3.53;;;;;;;9.92;100.00;95266.91;5010240;28;20069;-72
2023/03/18 08:36:58;;;;;;;8.80;2.83;;;;;;;10.14;100.00;95259.44;5015499;28;21138;-72
2023/03/18 08:39:24;;;;;;;6.35;3.30;;;;;;;10.19;100.00;95253.38;5023965;28;20042;-72
2023/03/18 08:41:49;;;;;;;6.00;2.63;;;;;;;10.28;100.00;95258.81;5002618;28;20034;-73
2023/03/18 08:44:15;;;;;;;6.70;2.83;;;;;;;10.45;100.00;95258.47;4998071;28;20045;-73
2023/03/18 08:46:40;;;;;;;6.20;2.70;;;;;;;10.50;100.00;95256.59;5008351;28;20536;-73
2023/03/18 08:49:06;;;;;;;6.28;2.70;;;;;;;10.68;99.26;95251.72;5001327;28;20054;-73
2023/03/18 08:51:33;;;;;;;8.57;2.80;;;;;;;10.79;90.34;95255.03;5003751;28;20100;-72
2023/03/18 08:53:59;;;;;;;6.68;2.65;;;;;;;10.94;92.19;95249.66;5002079;28;20100;-71
2023/03/18 08:56:25;;;;;;;6.72;2.90;;;;;;;11.08;100.00;95249.78;5021289;28;20044;-73
2023/03/18 08:58:51;;;;;;;7.03;3.10;;;;;;;11.06;85.43;95251.91;5024545;28;20045;-73
2023/03/18 09:01:18;;;;;;;7.28;2.70;;;;;;;11.31;84.36;95248.25;5015179;28;20049;-75
2023/03/18 09:03:44;;;;;;;8.80;2.67;;;;;;;11.56;86.50;95254.28;5007247;28;20034;-74
2023/03/18 09:06:09;;;;;;;7.18;2.55;;;;;;;11.48;82.23;95249.63;5018522;28;20196;-74
2023/03/18 09:08:35;;;;;;;3.92;2.13;;;;;;;11.69;81.37;95250.19;5024439;28;20038;-75
2023/03/18 09:11:01;;;;;;;9.52;2.78;;;;;;;11.76;84.16;95248.00;5026225;28;20094;-74
2023/03/18 09:13:27;;;;;;;6.00;2.33;;;;;;;11.71;80.19;95250.69;5019265;28;20030;-74
2023/03/18 09:15:53;;;;;;;7.57;2.60;;;;;;;11.67;84.96;95252.34;5011088;28;20038;-74
2023/03/18 09:18:19;;;;;;;5.90;2.83;;;;;;;12.00;76.97;95247.22;5025739;28;20041;-75
2023/03/18 09:20:45;;;;;;;7.82;2.97;;;;;;;12.11;77.03;95248.63;5010970;28;22079;-73
2023/03/18 09:23:12;;;;;;;12.20;3.47;;;;;;;12.29;87.80;95242.56;5015180;28;20046;-75
2023/03/18 09:25:41;;;;;;;6.50;2.45;;;;;;;12.30;80.70;95241.50;5015588;28;20264;-74
2023/03/18 09:28:07;;;;;;;9.35;2.55;;;;;;;12.57;76.51;95244.53;5013623;28;20033;-72
2023/03/18 09:30:33;;;;;;;9.15;3.35;;;;;;;12.67;85.44;95246.22;5016178;28;20077;-75
2023/03/18 09:32:59;;;;;;;5.38;2.55;;;;;;;12.75;87.08;95240.28;5016528;28;20045;-74
2023/03/18 09:35:24;;;;;;;7.28;2.50;;;;;;;12.98;75.05;95247.28;5019061;28;20041;-71
2023/03/18 09:37:50;;;;;;;7.53;2.83;;;;;;;13.15;70.37;95259.16;5023214;28;20095;-74
2023/03/18 09:40:28;;;;;;;8.70;2.67;;;;;;;13.13;70.91;95240.16;5017065;28;20045;-74
2023/03/18 09:43:01;;;;;;;10.00;4.15;;;;;;;13.19;68.90;95249.56;5012891;28;20043;-74
2023/03/18 09:45:38;;;;;;;10.52;3.40;;;;;;;13.25;70.20;95248.41;5017636;28;20497;-72
2023/03/18 09:48:28;;;;;;;8.43;3.10;;;;;;;13.17;78.36;95241.13;5013922;28;20038;-73
2023/03/18 09:50:57;;;;;;;8.35;3.22;;;;;;;13.09;81.50;95244.47;5006605;28;20038;-75
2023/03/18 09:53:30;;;;;;;8.57;2.90;;;;;;;13.36;82.27;95227.91;5020155;28;20037;-74
2023/03/18 09:56:00;;;;;;;9.43;2.90;;;;;;;13.42;80.06;95231.19;5028934;28;20050;-74
2023/03/18 09:58:34;;;;;;;8.52;2.65;;;;;;;13.43;75.48;95232.78;5009030;28;20556;-74
2023/03/18 10:01:01;;;;;;;9.67;3.07;;;;;;;13.71;66.15;95235.44;5010555;28;20568;-74
2023/03/18 10:03:36;;;;;;;7.03;2.63;;;;;;;13.80;66.13;95241.56;5008206;28;20042;-74
2023/03/18 10:06:15;;;;;;;6.82;2.80;;;;;;;14.25;66.10;95236.38;5010026;28;20050;-74
2023/03/18 10:08:54;;;;;;;8.48;2.80;;;;;;;14.38;61.02;95245.38;5016779;28;20038;-74
2023/03/18 10:11:25;;;;;;;7.90;2.95;;;;;;;14.69;62.17;95240.16;5009863;28;20053;-73
2023/03/18 10:13:59;;;;;;;9.05;2.88;;;;;;;14.53;60.40;95242.34;5006770;28;20099;-74
2023/03/18 10:16:30;;;;;;;6.13;3.00;;;;;;;15.04;60.23;95235.06;5012123;28;20053;-73
2023/03/18 10:18:56;;;;;;;9.25;3.28;;;;;;;15.91;54.34;95244.44;5011233;28;20037;-74
2023/03/18 10:21:34;;;;;;;8.32;3.00;;;;;;;16.66;57.32;95239.00;5010729;28;20544;-74
2023/03/18 10:24:23;;;;;;;10.40;3.25;;;;;;;16.56;49.73;95239.31;5004002;28;20049;-74
2023/03/18 10:26:58;;;;;;;6.80;3.05;;;;;;;17.37;48.66;95243.06;5010831;28;20049;-74
2023/03/18 10:29:48;;;;;;;6.20;2.88;;;;;;;16.51;51.93;95234.19;5013625;28;20100;-74
2023/03/18 10:32:13;;;;;;;5.95;2.50;;;;;;;17.40;48.74;95239.78;5009814;28;20045;-72
2023/03/18 10:34:53;;;;;;;7.65;3.00;;;;;;;17.38;46.06;95238.53;5008592;28;20062;-73
2023/03/18 10:37:47;;;;;;;8.27;2.55;;;;;;;17.72;44.01;95234.94;5010867;28;20160;-73
2023/03/18 10:40:16;;;;;;;12.48;3.00;;;;;;;18.95;41.85;95226.03;5003773;28;20485;-74
2023/03/18 10:42:43;;;;;;;6.03;2.78;;;;;;;18.07;40.10;95226.75;5010078;28;20041;-73
2023/03/18 10:45:21;;;;;;;8.23;3.20;;;;;;;18.99;38.72;95221.59;5013439;28;20049;-74
2023/03/18 10:48:14;;;;;;;10.90;3.53;;;;;;;19.40;37.34;95219.88;5012974;28;20124;-74
2023/03/18 10:50:50;;;;;;;10.40;2.78;;;;;;;19.95;36.28;95217.00;5013004;28;20064;-74
2023/03/18 10:53:26;;;;;;;5.97;3.00;;;;;;;18.86;38.51;95208.25;5016712;28;20045;-73
2023/03/18 10:56:13;;;;;;;6.70;3.30;;;;;;;19.02;39.01;95210.28;5014870;28;20049;-73
2023/03/18 10:58:41;;;;;;;6.43;3.00;;;;;;;19.21;38.59;95207.09;5013979;28;20121;-73
2023/03/18 11:01:09;;;;;;;6.45;3.17;;;;;;;19.46;38.52;95199.88;5010807;28;20033;-74
2023/03/18 11:03:50;;;;;;;8.65;2.60;;;;;;;19.76;34.05;95191.63;5012075;28;20049;-74
2023/03/18 11:06:30;;;;;;;8.20;2.63;;;;;;;20.52;33.77;95199.91;5008586;28;20049;-74
2023/03/18 11:09:03;;;;;;;7.40;2.72;;;;;;;21.76;31.62;95196.50;5021595;28;20038;-73
2023/03/18 11:11:33;;;;;;;7.90;3.03;;;;;;;21.32;34.81;95199.28;5013132;28;20045;-74
2023/03/18 11:14:01;;;;;;;5.78;2.78;;;;;;;21.19;33.21;95196.69;5007747;28;20121;-74
2023/03/18 11:16:38;;;;;;;6.78;3.08;;;;;;;22.42;30.73;95183.34;5018571;28;20046;-74
2023/03/18 11:19:25;;;;;;;9.73;3.35;;;;;;;21.20;33.37;95182.16;5012109;28;20505;-74
2023/03/18 11:22:01;;;;;;;7.18;2.90;;;;;;;21.56;33.92;95182.28;5010271;28;20049;-74
2023/03/18 11:24:35;;;;;;;7.32;2.85;;;;;;;21.71;34.85;95183.38;5013744;28;20069;-73
2023/03/18 11:27:01;;;;;;;7.10;3.30;;;;;;;21.73;31.89;95176.53;5020289;28;20046;-74
2023/03/18 11:29:32;;;;;;;14.48;3.15;;;;;;;21.29;33.65;95179.31;5014856;28;20196;-73
2023/03/18 11:32:00;;;;;;;9.98;3.20;;;;;;;22.25;32.44;95163.81;5029400;28;20100;-73
2023/03/18 11:34:31;;;;;;;5.63;2.72;;;;;;;21.35;32.56;95166.44;5007399;28;20045;-73
2023/03/18 11:37:07;;;;;;;9.30;2.88;;;;;;;21.85;33.87;95162.28;5015687;28;20391;-73
2023/03/18 11:39:38;;;;;;;11.13;3.20;;;;;;;20.60;32.13;95161.56;5012413;28;20034;-72